createdAt,value
2019-05-03T00:00:02.491Z,3.15
2019-05-03T00:02:36.501Z,4.28
2019-05-03T00:05:05.770Z,2.33
2019-05-03T00:07:32.664Z,3.12
2019-05-03T00:09:59.540Z,5.53
2019-05-03T00:12:28.081Z,4.40
2019-05-03T00:17:53.239Z,2.77
2019-05-03T00:20:21.886Z,4.28
2019-05-03T00:22:48.660Z,3.50
2019-05-03T00:25:16.425Z,4.08
2019-05-03T00:27:44.196Z,4.70
2019-05-03T00:30:11.999Z,4.00
2019-05-03T00:32:38.990Z,4.08
2019-05-03T00:35:12.071Z,6.75
2019-05-03T00:37:42.008Z,5.83
2019-05-03T00:40:12.246Z,6.00
2019-05-03T00:42:39.093Z,4.58
2019-05-03T00:45:07.248Z,3.98
2019-05-03T00:47:34.025Z,4.40
2019-05-03T00:50:07.733Z,8.08
2019-05-03T00:52:34.579Z,4.00
2019-05-03T00:59:32.678Z,7.25
2019-05-03T01:01:59.489Z,7.35
2019-05-03T01:04:26.300Z,3.90
2019-05-03T01:06:53.150Z,5.37
2019-05-03T01:09:22.533Z,7.47
2019-05-03T01:11:49.372Z,6.40
2019-05-03T01:14:16.235Z,3.50
2019-05-03T01:16:42.978Z,3.85
2019-05-03T01:19:11.962Z,8.23
2019-05-03T01:21:38.511Z,4.65
2019-05-03T01:24:05.499Z,4.70
2019-05-03T01:26:32.240Z,4.42
2019-05-03T01:28:58.895Z,4.90
2019-05-03T01:31:25.615Z,4.25
2019-05-03T01:33:52.366Z,4.87
2019-05-03T01:36:19.863Z,5.70
2019-05-03T01:38:47.638Z,3.60
2019-05-03T01:41:14.405Z,2.83
2019-05-03T01:43:41.786Z,5.37
2019-05-03T01:46:08.772Z,7.30
2019-05-03T01:48:41.596Z,6.00
2019-05-03T01:51:11.809Z,5.30
2019-05-03T01:53:41.664Z,5.62
2019-05-03T01:56:08.524Z,4.55
2019-05-03T01:58:35.212Z,6.72
2019-05-03T02:01:06.564Z,6.87
2019-05-03T02:03:38.083Z,5.08
2019-05-03T02:06:05.047Z,3.67
2019-05-03T02:08:32.639Z,4.80
2019-05-03T02:10:59.570Z,6.78
2019-05-03T02:13:26.435Z,6.03
2019-05-03T02:15:53.081Z,3.05
2019-05-03T02:18:19.862Z,4.08
2019-05-03T02:20:46.718Z,4.00
2019-05-03T02:23:13.505Z,4.33
2019-05-03T02:25:41.926Z,4.03
2019-05-03T02:28:08.751Z,4.12
2019-05-03T02:30:35.521Z,8.10
2019-05-03T02:33:04.181Z,4.28
2019-05-03T02:35:33.159Z,3.95
2019-05-03T02:37:59.590Z,4.05
2019-05-03T02:40:26.739Z,6.00
2019-05-03T02:43:12.156Z,5.22
2019-05-03T02:45:45.652Z,4.95
2019-05-03T02:48:26.154Z,5.17
2019-05-03T02:50:55.885Z,7.87
2019-05-03T02:53:21.567Z,4.35
2019-05-03T02:55:48.318Z,6.33
2019-05-03T02:58:16.202Z,5.97
2019-05-03T03:00:56.212Z,5.67
2019-05-03T03:03:25.590Z,5.37
2019-05-03T03:05:56.053Z,4.47
2019-05-03T03:08:25.298Z,4.90
2019-05-03T03:10:58.661Z,3.95
2019-05-03T03:13:28.605Z,4.55
2019-05-03T03:15:58.169Z,3.37
2019-05-03T03:18:27.409Z,5.60
2019-05-03T03:20:57.794Z,2.60
2019-05-03T03:23:26.688Z,4.33
2019-05-03T03:25:56.120Z,3.55
2019-05-03T03:28:25.291Z,3.70
2019-05-03T03:31:08.694Z,3.33
2019-05-03T03:33:40.205Z,6.10
2019-05-03T03:36:31.628Z,5.53
2019-05-03T03:38:35.312Z,6.37
2019-05-03T03:41:02.259Z,6.50
2019-05-03T03:43:30.012Z,9.35
2019-05-03T03:45:58.411Z,3.87
2019-05-03T03:48:26.526Z,6.55
2019-05-03T03:50:56.128Z,5.83
2019-05-03T03:53:26.363Z,6.83
2019-05-03T03:55:56.351Z,2.77
2019-05-03T03:58:23.372Z,4.03
2019-05-03T04:00:51.848Z,7.03
2019-05-03T04:03:19.804Z,6.17
2019-05-03T04:05:46.935Z,5.37
2019-05-03T04:08:16.185Z,7.33
2019-05-03T04:10:42.495Z,4.25
2019-05-03T04:13:11.243Z,3.65
2019-05-03T04:15:40.703Z,4.35
2019-05-03T04:18:18.664Z,4.00
2019-05-03T04:20:45.959Z,3.77
2019-05-03T04:23:16.028Z,6.50
2019-05-03T04:25:41.792Z,6.72
2019-05-03T04:28:08.952Z,5.12
2019-05-03T04:30:36.344Z,8.50
2019-05-03T04:33:05.929Z,8.05
2019-05-03T04:35:36.059Z,8.28
2019-05-03T04:38:02.053Z,7.30
2019-05-03T04:40:28.713Z,5.20
2019-05-03T04:42:55.914Z,4.40
2019-05-03T04:45:25.482Z,5.10
2019-05-03T04:47:51.979Z,7.62
2019-05-03T04:50:18.757Z,6.47
2019-05-03T04:52:46.305Z,7.90
2019-05-03T04:55:15.986Z,10.23
2019-05-03T04:57:46.783Z,11.18
2019-05-03T05:00:11.775Z,8.90
2019-05-03T05:02:38.656Z,5.08
2019-05-03T05:05:06.260Z,3.02
2019-05-03T05:07:35.058Z,5.55
2019-05-03T05:10:05.165Z,4.20
2019-05-03T05:12:32.096Z,6.12
2019-05-03T05:14:58.727Z,4.87
2019-05-03T05:17:27.371Z,4.03
2019-05-03T05:19:58.839Z,5.22
2019-05-03T05:22:27.514Z,6.33
2019-05-03T05:24:55.254Z,4.33
2019-05-03T05:27:25.622Z,3.67
2019-05-03T05:29:52.729Z,4.90
2019-05-03T05:32:19.513Z,3.33
2019-05-03T05:34:46.294Z,4.15
2019-05-03T05:37:14.497Z,5.30
2019-05-03T05:39:41.437Z,6.87
2019-05-03T05:42:08.227Z,4.53
2019-05-03T05:44:35.286Z,3.62
2019-05-03T05:47:06.725Z,2.60
2019-05-03T05:49:47.570Z,3.90
2019-05-03T05:52:15.454Z,2.47
2019-05-03T05:54:45.553Z,2.67
2019-05-03T05:57:29.374Z,3.30
2019-05-03T06:00:00.834Z,3.72
2019-05-03T06:02:27.581Z,1.77
2019-05-03T06:04:54.449Z,2.17
2019-05-03T06:07:28.916Z,2.30
2019-05-03T06:09:57.491Z,3.42
2019-05-03T06:12:29.216Z,1.90
2019-05-03T06:15:00.410Z,3.80
2019-05-03T06:17:34.965Z,1.92
2019-05-03T06:20:15.622Z,1.40
2019-05-03T06:22:47.085Z,2.08
2019-05-03T06:25:27.682Z,0.93
2019-05-03T06:27:54.950Z,1.32
2019-05-03T06:30:24.861Z,1.12
2019-05-03T06:32:51.740Z,1.17
2019-05-03T06:35:18.507Z,0.47
2019-05-03T06:37:46.053Z,2.10
2019-05-03T06:40:14.881Z,0.70
2019-05-03T06:42:52.458Z,0.40
2019-05-03T06:45:11.788Z,0.35
2019-05-03T06:47:40.166Z,2.22
2019-05-03T06:50:07.593Z,1.15
2019-05-03T06:52:35.153Z,0.80
2019-05-03T06:55:08.593Z,0.78
2019-05-03T06:57:30.996Z,1.00
2019-05-03T07:00:16.100Z,0.40
2019-05-03T07:02:54.597Z,0.90
2019-05-03T07:05:24.984Z,0.72
2019-05-03T07:07:54.704Z,0.85
2019-05-03T07:10:32.562Z,0.45
2019-05-03T07:13:05.208Z,1.05
2019-05-03T07:15:35.191Z,0.50
2019-05-03T07:18:02.042Z,0.50
2019-05-03T07:20:30.992Z,0.68
2019-05-03T07:22:57.657Z,1.00
2019-05-03T07:25:25.555Z,0.20
2019-05-03T07:27:52.672Z,0.30
2019-05-03T07:30:19.692Z,0.55
2019-05-03T07:32:48.347Z,1.32
2019-05-03T07:35:15.111Z,1.57
2019-05-03T07:37:41.913Z,0.40
2019-05-03T07:40:08.557Z,0.30
2019-05-03T07:42:35.328Z,0.40
2019-05-03T07:45:06.238Z,0.28
2019-05-03T07:47:34.835Z,0.50
2019-05-03T07:50:01.514Z,1.52
2019-05-03T07:52:29.463Z,0.40
2019-05-03T07:54:56.228Z,0.35
2019-05-03T07:57:27.758Z,0.50
2019-05-03T07:59:55.680Z,0.45
2019-05-03T08:02:25.098Z,0.20
2019-05-03T08:04:51.132Z,0.28
2019-05-03T08:07:22.356Z,0.65
2019-05-03T08:09:47.503Z,2.00
2019-05-03T08:12:15.360Z,2.95
2019-05-03T08:14:41.997Z,0.68
2019-05-03T08:17:08.870Z,0.33
2019-05-03T08:19:36.064Z,0.70
2019-05-03T08:22:04.846Z,0.30
2019-05-03T08:24:31.654Z,4.12
2019-05-03T08:26:58.355Z,1.67
2019-05-03T08:29:26.121Z,0.47
2019-05-03T08:31:54.789Z,0.20
2019-05-03T08:34:25.601Z,1.55
2019-05-03T08:36:59.819Z,0.82
2019-05-03T08:39:26.658Z,2.42
2019-05-03T08:41:55.419Z,0.20
2019-05-03T08:44:22.110Z,0.20
2019-05-03T08:46:48.922Z,0.28
2019-05-03T08:49:15.577Z,0.13
2019-05-03T08:51:44.332Z,0.30
2019-05-03T08:54:11.064Z,0.10
2019-05-03T08:56:37.936Z,0.35
2019-05-03T08:59:04.837Z,1.25
2019-05-03T09:01:31.651Z,0.20
2019-05-03T09:03:58.771Z,0.20
2019-05-03T09:06:25.555Z,0.30
2019-05-03T09:08:56.867Z,0.23
2019-05-03T09:11:31.885Z,1.85
2019-05-03T09:13:52.489Z,0.33
2019-05-03T09:16:19.210Z,0.80
2019-05-03T09:18:45.915Z,0.93
2019-05-03T09:21:14.638Z,0.20
2019-05-03T09:23:41.113Z,0.30
2019-05-03T09:26:07.875Z,0.75
2019-05-03T09:28:34.919Z,3.22
2019-05-03T09:31:01.704Z,0.15
2019-05-03T09:33:29.459Z,0.10
2019-05-03T09:35:56.235Z,0.30
2019-05-03T09:38:23.001Z,0.75
2019-05-03T09:40:51.946Z,0.23
2019-05-03T09:43:18.288Z,0.10
2019-05-03T09:45:46.136Z,0.35
2019-05-03T09:48:14.863Z,0.60
2019-05-03T09:50:41.488Z,0.50
2019-05-03T09:53:09.084Z,0.10
2019-05-03T09:55:37.823Z,1.75
2019-05-03T09:58:05.555Z,1.45
2019-05-03T10:00:32.596Z,0.10
2019-05-03T10:02:59.485Z,0.10
2019-05-03T10:05:26.187Z,1.40
2019-05-03T10:07:52.952Z,0.82
2019-05-03T10:10:19.724Z,0.53
2019-05-03T10:12:46.495Z,0.13
2019-05-03T10:15:37.231Z,0.30
2019-05-03T10:18:10.592Z,0.00
2019-05-03T10:20:34.880Z,0.10
2019-05-03T10:23:05.191Z,0.30
2019-05-03T10:25:32.116Z,0.40
2019-05-03T10:27:58.891Z,0.65
2019-05-03T10:30:26.946Z,0.08
2019-05-03T10:33:01.752Z,0.05
2019-05-03T10:35:28.514Z,0.10
2019-05-03T10:37:55.289Z,1.80
2019-05-03T10:40:25.225Z,0.10
2019-05-03T10:42:52.092Z,0.10
2019-05-03T10:45:18.837Z,0.00
2019-05-03T10:47:45.774Z,0.50
2019-05-03T10:50:12.564Z,0.50
2019-05-03T10:52:41.344Z,0.10
2019-05-03T10:55:08.136Z,1.30
2019-05-03T10:57:36.804Z,0.80
2019-05-03T11:00:09.314Z,3.40
2019-05-03T11:02:42.589Z,1.12
2019-05-03T11:05:10.413Z,1.02
2019-05-03T11:07:37.178Z,1.15
2019-05-03T11:10:06.287Z,0.30
2019-05-03T11:12:34.745Z,0.20
2019-05-03T11:15:02.012Z,0.45
2019-05-03T11:17:30.892Z,0.20
2019-05-03T11:19:57.529Z,0.40
2019-05-03T11:22:25.222Z,5.75
2019-05-03T11:24:52.213Z,0.90
2019-05-03T11:27:24.829Z,1.85
2019-05-03T11:29:51.860Z,0.40
2019-05-03T11:32:26.361Z,0.78
2019-05-03T11:35:14.964Z,4.03
2019-05-03T11:37:46.015Z,1.55
2019-05-03T11:40:13.000Z,0.65
2019-05-03T11:42:39.866Z,1.70
2019-05-03T11:45:07.171Z,1.45
2019-05-03T11:47:34.837Z,0.88
2019-05-03T11:50:02.282Z,1.80
2019-05-03T11:52:29.027Z,0.30
2019-05-03T11:54:55.789Z,2.47
2019-05-03T11:57:26.937Z,1.20
2019-05-03T11:59:54.795Z,5.80
2019-05-03T12:02:26.721Z,2.42
2019-05-03T12:04:55.230Z,2.00
2019-05-03T12:07:39.075Z,0.80
2019-05-03T12:10:02.178Z,2.47
2019-05-03T12:12:32.068Z,7.60
2019-05-03T12:14:58.808Z,2.60
2019-05-03T12:17:29.776Z,7.45
2019-05-03T12:19:58.054Z,0.80
2019-05-03T12:22:26.081Z,1.30
2019-05-03T12:24:53.589Z,2.58
2019-05-03T12:27:21.133Z,2.20
2019-05-03T12:29:47.895Z,3.22
2019-05-03T12:32:14.706Z,2.02
2019-05-03T12:34:41.510Z,2.50
2019-05-03T12:37:08.263Z,1.60
2019-05-03T12:39:35.738Z,1.75
2019-05-03T12:42:03.109Z,5.00
2019-05-03T12:44:29.854Z,3.52
2019-05-03T12:46:56.729Z,2.12
2019-05-03T12:49:24.963Z,2.37
2019-05-03T12:51:52.953Z,2.75
2019-05-03T12:54:19.743Z,1.32
2019-05-03T12:56:46.509Z,2.42
2019-05-03T12:59:27.168Z,0.60
2019-05-03T13:02:01.678Z,0.95
2019-05-03T13:04:33.323Z,1.50
2019-05-03T13:07:05.447Z,0.62
2019-05-03T13:09:32.324Z,1.07
2019-05-03T13:11:59.393Z,0.80
2019-05-03T13:14:26.251Z,0.40
2019-05-03T13:16:55.076Z,1.45
2019-05-03T13:19:21.517Z,1.87
2019-05-03T13:21:48.353Z,0.53
2019-05-03T13:24:22.912Z,1.57
2019-05-03T13:26:45.568Z,1.98
2019-05-03T13:29:12.125Z,0.57
2019-05-03T13:31:38.992Z,1.02
2019-05-03T13:34:05.772Z,1.35
2019-05-03T13:36:34.756Z,2.45
2019-05-03T13:39:11.452Z,1.07
2019-05-03T13:41:31.429Z,0.75
2019-05-03T13:43:58.308Z,0.82
2019-05-03T13:46:25.125Z,0.60
2019-05-03T13:48:51.900Z,1.30
2019-05-03T13:51:18.733Z,1.82
2019-05-03T13:53:45.486Z,0.65
2019-05-03T13:56:12.397Z,0.90
2019-05-03T13:58:39.137Z,0.62
2019-05-03T14:01:05.998Z,0.53
2019-05-03T14:03:35.164Z,0.50
2019-05-03T14:06:07.565Z,0.75
2019-05-03T14:08:30.789Z,4.10
2019-05-03T14:10:57.600Z,1.35
2019-05-03T14:13:24.585Z,0.70
2019-05-03T14:15:51.378Z,10.20
2019-05-03T14:18:18.108Z,23.65
2019-05-03T14:21:05.230Z,9.08
2019-05-03T14:23:34.719Z,2.58
2019-05-03T14:26:01.616Z,1.00
2019-05-03T14:28:29.507Z,1.32
2019-05-03T14:30:56.379Z,4.67
2019-05-03T14:33:24.886Z,3.40
2019-05-03T14:35:51.777Z,8.65
2019-05-03T14:38:18.524Z,2.60
2019-05-03T14:40:47.364Z,2.47
2019-05-03T14:43:15.420Z,0.90
2019-05-03T14:45:42.421Z,2.33
2019-05-03T14:48:09.219Z,1.85
2019-05-03T14:50:36.019Z,2.17
2019-05-03T14:53:05.238Z,1.75
2019-05-03T14:55:36.221Z,1.75
2019-05-03T14:58:11.266Z,2.45
2019-05-03T15:00:45.042Z,1.60
2019-05-03T15:03:15.008Z,2.67
2019-05-03T15:05:41.817Z,2.80
2019-05-03T15:08:08.503Z,2.83
2019-05-03T15:10:35.364Z,3.08
2019-05-03T15:13:02.158Z,1.35
2019-05-03T15:15:29.083Z,1.12
2019-05-03T15:17:55.770Z,2.83
2019-05-03T15:20:22.706Z,1.60
2019-05-03T15:22:49.591Z,14.65
2019-05-03T15:25:16.569Z,3.58
2019-05-03T15:27:44.811Z,1.35
2019-05-03T15:30:12.727Z,4.03
2019-05-03T15:35:16.457Z,2.22
2019-05-03T15:37:45.107Z,2.05
2019-05-03T15:40:12.025Z,2.55
2019-05-03T15:42:40.757Z,3.47
2019-05-03T15:45:10.124Z,3.77
2019-05-03T15:47:38.780Z,4.25
2019-05-03T15:50:06.057Z,1.22
2019-05-03T15:52:35.326Z,1.40
2019-05-03T15:55:01.513Z,1.70
2019-05-03T15:57:28.461Z,1.67
2019-05-03T15:59:55.324Z,2.60
2019-05-03T16:02:22.063Z,1.98
2019-05-03T16:04:48.832Z,0.90
2019-05-03T16:07:15.635Z,1.52
2019-05-03T16:09:44.412Z,2.55
2019-05-03T16:12:11.184Z,1.30
2019-05-03T16:14:37.977Z,2.72
2019-05-03T16:17:04.770Z,1.20
2019-05-03T16:19:31.530Z,1.90
2019-05-03T16:21:58.423Z,1.40
2019-05-03T16:24:25.287Z,1.52
2019-05-03T16:27:10.837Z,3.22
2019-05-03T16:29:37.569Z,0.90
2019-05-03T16:32:05.219Z,0.88
2019-05-03T16:34:32.284Z,1.07
2019-05-03T16:36:59.212Z,0.82
2019-05-03T16:39:26.872Z,2.37
2019-05-03T16:41:55.682Z,1.47
2019-05-03T16:44:23.965Z,0.93
2019-05-03T16:46:51.222Z,1.22
2019-05-03T16:49:18.092Z,1.45
2019-05-03T16:51:44.800Z,0.80
2019-05-03T16:54:11.592Z,0.78
2019-05-03T16:56:38.573Z,0.90
2019-05-03T16:59:05.774Z,0.30
2019-05-03T17:01:32.777Z,0.70
2019-05-03T17:04:17.898Z,1.17
2019-05-03T17:06:49.342Z,0.93
2019-05-03T17:09:18.067Z,2.25
2019-05-03T17:11:48.621Z,1.22
2019-05-03T17:14:15.598Z,0.88
2019-05-03T17:16:42.517Z,0.80
2019-05-03T17:19:09.258Z,0.80
2019-05-03T17:21:36.021Z,0.57
2019-05-03T17:24:04.347Z,1.35
2019-05-03T17:26:32.511Z,1.15
2019-05-03T17:28:59.253Z,1.80
2019-05-03T17:31:26.312Z,1.90
2019-05-03T17:33:56.176Z,2.58
2019-05-03T17:36:21.757Z,1.57
2019-05-03T17:38:50.449Z,1.57
2019-05-03T17:41:21.643Z,1.85
2019-05-03T17:43:56.015Z,2.85
2019-05-03T17:46:22.780Z,0.85
2019-05-03T17:48:49.728Z,1.40
2019-05-03T17:51:35.191Z,1.72
2019-05-03T17:54:05.184Z,6.37
2019-05-03T17:56:35.089Z,1.57
2019-05-03T17:59:06.617Z,1.67
2019-05-03T18:01:37.879Z,1.20
2019-05-03T18:04:09.793Z,1.22
2019-05-03T18:09:11.315Z,4.00
2019-05-03T18:11:45.110Z,4.70
2019-05-03T18:14:12.065Z,1.80
2019-05-03T18:16:39.212Z,2.85
2019-05-03T18:19:07.981Z,3.08
2019-05-03T18:21:34.676Z,3.30
2019-05-03T18:24:01.527Z,3.62
2019-05-03T18:26:28.415Z,2.42
2019-05-03T18:28:55.444Z,2.90
2019-05-03T18:31:22.384Z,5.22
2019-05-03T18:33:49.224Z,2.80
2019-05-03T18:36:16.159Z,2.80
2019-05-03T18:38:44.590Z,3.20
2019-05-03T18:41:12.051Z,2.90
2019-05-03T18:43:49.675Z,2.87
2019-05-03T18:46:21.030Z,4.15
2019-05-03T18:48:47.776Z,4.45
2019-05-03T18:51:14.877Z,3.22
2019-05-03T18:53:41.646Z,3.67
2019-05-03T18:56:08.645Z,3.72
2019-05-03T18:58:35.620Z,2.02
2019-05-03T19:01:05.287Z,1.90
2019-05-03T19:03:32.148Z,2.33
2019-05-03T19:06:05.249Z,1.90
2019-05-03T19:08:44.553Z,2.35
2019-05-03T19:11:21.988Z,3.65
2019-05-03T19:14:04.605Z,1.70
2019-05-03T19:16:35.048Z,2.55
2019-05-03T19:19:02.087Z,1.75
2019-05-03T19:21:29.828Z,4.67
2019-05-03T19:23:56.679Z,3.17
2019-05-03T19:26:24.863Z,1.72
2019-05-03T19:28:51.741Z,3.12
2019-05-03T19:31:18.621Z,1.82
2019-05-03T19:33:45.727Z,4.30
2019-05-03T19:36:12.577Z,2.55
2019-05-03T19:38:39.448Z,4.83
2019-05-03T19:41:06.243Z,5.25
2019-05-03T19:43:35.345Z,4.45
2019-05-03T19:46:01.564Z,4.80
2019-05-03T19:48:28.428Z,5.10
2019-05-03T19:50:55.237Z,4.72
2019-05-03T19:53:29.499Z,5.12
2019-05-03T19:55:56.419Z,6.25
2019-05-03T19:58:24.886Z,3.87
2019-05-03T20:00:59.244Z,5.08
2019-05-03T20:03:43.094Z,5.45
2019-05-03T20:06:14.655Z,3.83
2019-05-03T20:08:44.432Z,4.97
2019-05-03T20:11:14.904Z,4.78
2019-05-03T20:13:42.365Z,5.67
2019-05-03T20:16:09.133Z,3.65
2019-05-03T20:18:35.871Z,3.75
2019-05-03T20:21:04.366Z,4.65
2019-05-03T20:23:31.137Z,3.37
2019-05-03T20:25:57.911Z,4.22
2019-05-03T20:28:24.804Z,2.98
2019-05-03T20:30:51.556Z,4.00
2019-05-03T20:33:18.344Z,2.67
2019-05-03T20:35:45.324Z,2.17
2019-05-03T20:38:12.071Z,2.33
2019-05-03T20:40:38.915Z,2.58
2019-05-03T20:43:08.616Z,2.62
2019-05-03T20:45:44.544Z,2.50
2019-05-03T20:48:14.518Z,3.60
2019-05-03T20:50:41.331Z,3.62
2019-05-03T20:53:08.108Z,2.67
2019-05-03T20:55:34.927Z,2.62
2019-05-03T20:58:01.511Z,7.50
2019-05-03T21:00:28.526Z,3.65
2019-05-03T21:02:57.413Z,4.45
2019-05-03T21:05:30.432Z,4.08
2019-05-03T21:07:52.666Z,5.30
2019-05-03T21:10:21.177Z,4.28
2019-05-03T21:12:48.001Z,4.15
2019-05-03T21:15:35.478Z,4.70
2019-05-03T21:18:16.567Z,3.45
2019-05-03T21:20:45.293Z,4.53
2019-05-03T21:23:14.783Z,3.80
2019-05-03T21:26:05.157Z,4.08
2019-05-03T21:28:12.248Z,3.75
2019-05-03T21:30:38.920Z,4.90
2019-05-03T21:33:05.596Z,3.35
2019-05-03T21:35:40.786Z,5.65
2019-05-03T21:38:00.867Z,12.63
2019-05-03T21:40:27.637Z,4.70
2019-05-03T21:42:54.651Z,2.70
2019-05-03T21:45:24.675Z,18.45
2019-05-03T21:47:54.727Z,9.55
2019-05-03T21:50:21.869Z,3.55
2019-05-03T21:52:48.599Z,2.47
2019-05-03T21:55:15.346Z,6.60
2019-05-03T21:57:41.955Z,4.45
2019-05-03T22:00:10.525Z,2.20
2019-05-03T22:02:39.457Z,3.27
2019-05-03T22:05:06.415Z,2.37
2019-05-03T22:07:34.915Z,2.17
2019-05-03T22:10:02.242Z,1.40
2019-05-03T22:12:29.040Z,1.62
2019-05-03T22:15:04.975Z,2.00
2019-05-03T22:17:50.061Z,3.77
2019-05-03T22:20:27.592Z,2.08
2019-05-03T22:23:02.097Z,2.47
2019-05-03T22:25:34.831Z,2.45
2019-05-03T22:28:01.663Z,4.20
2019-05-03T22:30:28.517Z,0.95
2019-05-03T22:32:56.248Z,2.37
2019-05-03T22:35:24.971Z,1.10
2019-05-03T22:37:51.492Z,0.95
2019-05-03T22:40:18.245Z,1.75
2019-05-03T22:42:45.112Z,1.95
2019-05-03T22:45:11.975Z,3.10
2019-05-03T22:47:38.680Z,1.75
2019-05-03T22:50:05.585Z,1.85
2019-05-03T22:52:32.448Z,1.20
2019-05-03T22:54:59.150Z,1.25
2019-05-03T22:57:25.977Z,0.62
2019-05-03T22:59:52.715Z,0.80
2019-05-03T23:02:19.575Z,2.20
2019-05-03T23:04:46.480Z,2.17
2019-05-03T23:07:14.882Z,2.37
2019-05-03T23:09:41.820Z,1.25
2019-05-03T23:12:10.690Z,0.40
2019-05-03T23:14:37.677Z,1.62
2019-05-03T23:17:04.609Z,8.00
2019-05-03T23:19:33.245Z,0.95
2019-05-03T23:22:07.738Z,5.42
2019-05-03T23:24:35.225Z,0.93
2019-05-03T23:27:02.342Z,1.35
2019-05-03T23:29:29.175Z,3.17
2019-05-03T23:31:56.031Z,2.20
2019-05-03T23:34:24.684Z,2.33
2019-05-03T23:36:51.466Z,1.22
2019-05-03T23:39:18.208Z,2.33
2019-05-03T23:41:44.995Z,3.05
2019-05-03T23:44:11.658Z,1.42
2019-05-03T23:46:40.308Z,1.02
2019-05-03T23:49:06.976Z,2.10
2019-05-03T23:51:44.456Z,1.95
2019-05-03T23:54:11.220Z,0.90
2019-05-03T23:56:37.976Z,1.50
2019-05-03T23:59:05.512Z,3.37
